Aiwamaru — JD2602 — position and weather

sailwx.info

Track history (hours):
 
Tides and Currents Weather Stations Pressure Air Temp Water Temp Dewpoint Dewpoint Depression Visibility Wind Speed Wind Dir Waves Ship Positions

Aiwamaru

Last reported at 2017-Feb-21 10:22 UTC. Time now 2017-Feb-25 09:03 UTC.
Position N 33°58' E 132°34'.

Length 64 m; draft 4.8 m.

Type: Tanker. MMSI: 431000508.

Date/timePositionNaut miles runAvg speedWind from/ knotsBaromVisibWave heightAir tempDewpointWater temp
2017-Feb-21 10:22N 33°58' E 132°34'911.5
2017-Feb-21 09:33N 33°52' E 132°26'1211.6
2017-Feb-21 08:31N 33°49' E 132°11'13 9.6
2017-Feb-21 07:08N 33°51' E 131°55'12 0.6
2017-Feb-20 11:28N 33°50' E 132°09'1011.3
2017-Feb-20 10:32N 33°60' E 132°14'2 0.4
2017-Feb-20 05:23N 34°01' E 132°16'1011.3
2017-Feb-20 04:32N 33°52' E 132°10'3 0.2
2017-Feb-19 11:27N 33°50' E 132°09'2511.1
2017-Feb-19 09:11N 34°08' E 132°30'12 3.2
2017-Feb-19 05:32N 34°02' E 132°18'1111.2
2017-Feb-19 04:33N 33°53' E 132°10'6 0.4
2017-Feb-18 13:11N 33°52' E 132°02'3 3.8
2017-Feb-18 12:29N 33°52' E 132°06'7 5.6
2017-Feb-18 11:13N 33°57' E 132°11'2 0.3
2017-Feb-18 05:25N 33°58' E 132°12'9 8.3
2017-Feb-18 04:19N 33°51' E 132°06'8 0.2
2017-Feb-16 13:17N 33°50' E 132°16'811.3
2017-Feb-16 12:33N 33°53' E 132°26'1312.2
2017-Feb-16 11:32N 34°01' E 132°37'1 0.0
2017-Feb-15 07:33N 34°00' E 132°37'1010.1
2017-Feb-15 06:33N 33°54' E 132°28'1110.7
2017-Feb-15 05:30N 33°50' E 132°15'16 1.6
2017-Feb-14 19:28N 33°51' E 131°55'2311.8
2017-Feb-14 17:32N 33°50' E 132°23'1413.5
2017-Feb-14 16:28N 33°60' E 132°36'  
2017-Feb-12 10:29N 34°03' E 132°41'1212.5
2017-Feb-12 09:33N 33°55' E 132°30'1311.8
2017-Feb-12 08:28N 33°50' E 132°16'  
Track history (hours):
 
Tides and Currents Weather Stations Pressure Air Temp Water Temp Dewpoint Dewpoint Depression Visibility Wind Speed Wind Dir Waves Ship Positions

Aiwamaru

Last reported at 2017-Feb-21 10:22 UTC. Time now 2017-Feb-25 09:03 UTC.
Position N 33°58' E 132°34'.

Length 64 m; draft 4.8 m.

Type: Tanker. MMSI: 431000508.

Date/timePositionNaut miles runAvg speedWind from/ knotsBaromVisibWave heightAir tempDewpointWater temp
2017-Feb-21 10:22N 33°58' E 132°34'911.5
2017-Feb-21 09:33N 33°52' E 132°26'1211.6
2017-Feb-21 08:31N 33°49' E 132°11'13 9.6
2017-Feb-21 07:08N 33°51' E 131°55'12 0.6
2017-Feb-20 11:28N 33°50' E 132°09'1011.3
2017-Feb-20 10:32N 33°60' E 132°14'2 0.4
2017-Feb-20 05:23N 34°01' E 132°16'1011.3
2017-Feb-20 04:32N 33°52' E 132°10'3 0.2
2017-Feb-19 11:27N 33°50' E 132°09'2511.1
2017-Feb-19 09:11N 34°08' E 132°30'12 3.2
2017-Feb-19 05:32N 34°02' E 132°18'1111.2
2017-Feb-19 04:33N 33°53' E 132°10'6 0.4
2017-Feb-18 13:11N 33°52' E 132°02'3 3.8
2017-Feb-18 12:29N 33°52' E 132°06'7 5.6
2017-Feb-18 11:13N 33°57' E 132°11'2 0.3
2017-Feb-18 05:25N 33°58' E 132°12'9 8.3
2017-Feb-18 04:19N 33°51' E 132°06'8 0.2
2017-Feb-16 13:17N 33°50' E 132°16'811.3
2017-Feb-16 12:33N 33°53' E 132°26'1312.2
2017-Feb-16 11:32N 34°01' E 132°37'1 0.0
2017-Feb-15 07:33N 34°00' E 132°37'1010.1
2017-Feb-15 06:33N 33°54' E 132°28'1110.7
2017-Feb-15 05:30N 33°50' E 132°15'16 1.6
2017-Feb-14 19:28N 33°51' E 131°55'2311.8
2017-Feb-14 17:32N 33°50' E 132°23'1413.5
2017-Feb-14 16:28N 33°60' E 132°36'  
2017-Feb-12 10:29N 34°03' E 132°41'1212.5
2017-Feb-12 09:33N 33°55' E 132°30'1311.8
2017-Feb-12 08:28N 33°50' E 132°16'  

Dump ship's entire track history